sensor_id;sensor_type;location;lat;lon;timestamp;P1;durP1;ratioP1;P2;durP2;ratioP2
11054;SDS011;5580;50.106;8.702;2023-02-04T00:01:45;18.77;;;5.53;;
11054;SDS011;5580;50.106;8.702;2023-02-04T00:04:11;14.70;;;5.00;;
11054;SDS011;5580;50.106;8.702;2023-02-04T00:06:37;15.60;;;5.60;;
11054;SDS011;5580;50.106;8.702;2023-02-04T00:09:03;15.30;;;5.10;;
11054;SDS011;5580;50.106;8.702;2023-02-04T00:11:29;15.53;;;5.17;;
11054;SDS011;5580;50.106;8.702;2023-02-04T00:13:54;12.77;;;5.10;;
11054;SDS011;5580;50.106;8.702;2023-02-04T00:16:20;15.47;;;5.03;;
11054;SDS011;5580;50.106;8.702;2023-02-04T00:18:46;13.90;;;5.83;;
11054;SDS011;5580;50.106;8.702;2023-02-04T00:21:11;13.07;;;5.00;;
11054;SDS011;5580;50.106;8.702;2023-02-04T00:23:37;15.53;;;5.60;;
11054;SDS011;5580;50.106;8.702;2023-02-04T00:26:03;18.23;;;5.57;;
11054;SDS011;5580;50.106;8.702;2023-02-04T00:28:28;16.77;;;5.07;;
11054;SDS011;5580;50.106;8.702;2023-02-04T00:30:54;16.77;;;5.30;;
11054;SDS011;5580;50.106;8.702;2023-02-04T00:33:20;13.13;;;5.13;;
11054;SDS011;5580;50.106;8.702;2023-02-04T00:35:45;14.60;;;5.07;;
11054;SDS011;5580;50.106;8.702;2023-02-04T00:38:11;16.97;;;5.07;;
11054;SDS011;5580;50.106;8.702;2023-02-04T00:40:36;12.83;;;5.03;;
11054;SDS011;5580;50.106;8.702;2023-02-04T00:43:02;16.53;;;4.83;;
11054;SDS011;5580;50.106;8.702;2023-02-04T00:45:27;13.37;;;4.77;;
11054;SDS011;5580;50.106;8.702;2023-02-04T00:47:53;15.53;;;5.10;;
11054;SDS011;5580;50.106;8.702;2023-02-04T00:50:18;14.10;;;4.80;;
11054;SDS011;5580;50.106;8.702;2023-02-04T00:52:44;16.70;;;4.80;;
11054;SDS011;5580;50.106;8.702;2023-02-04T00:55:10;14.27;;;5.10;;
11054;SDS011;5580;50.106;8.702;2023-02-04T00:57:36;11.87;;;4.53;;
11054;SDS011;5580;50.106;8.702;2023-02-04T01:00:03;19.93;;;4.73;;
11054;SDS011;5580;50.106;8.702;2023-02-04T01:02:29;13.70;;;4.90;;
11054;SDS011;5580;50.106;8.702;2023-02-04T01:04:56;17.20;;;5.00;;
11054;SDS011;5580;50.106;8.702;2023-02-04T01:07:21;15.93;;;5.07;;
11054;SDS011;5580;50.106;8.702;2023-02-04T01:09:47;13.80;;;4.90;;
11054;SDS011;5580;50.106;8.702;2023-02-04T01:12:13;13.87;;;4.77;;
11054;SDS011;5580;50.106;8.702;2023-02-04T01:14:38;11.43;;;4.70;;
11054;SDS011;5580;50.106;8.702;2023-02-04T01:17:04;16.57;;;4.80;;
11054;SDS011;5580;50.106;8.702;2023-02-04T01:19:29;12.27;;;4.33;;
11054;SDS011;5580;50.106;8.702;2023-02-04T01:21:55;18.43;;;5.13;;
11054;SDS011;5580;50.106;8.702;2023-02-04T01:24:20;16.40;;;4.93;;
11054;SDS011;5580;50.106;8.702;2023-02-04T01:26:46;14.80;;;4.87;;
11054;SDS011;5580;50.106;8.702;2023-02-04T01:29:11;15.53;;;4.80;;
11054;SDS011;5580;50.106;8.702;2023-02-04T01:31:37;13.23;;;4.30;;
11054;SDS011;5580;50.106;8.702;2023-02-04T01:34:02;15.17;;;4.90;;
11054;SDS011;5580;50.106;8.702;2023-02-04T01:36:28;15.80;;;5.17;;
11054;SDS011;5580;50.106;8.702;2023-02-04T01:38:54;18.63;;;4.80;;
11054;SDS011;5580;50.106;8.702;2023-02-04T01:41:19;14.63;;;4.73;;
11054;SDS011;5580;50.106;8.702;2023-02-04T01:43:46;13.27;;;4.53;;
11054;SDS011;5580;50.106;8.702;2023-02-04T01:46:13;14.00;;;4.43;;
11054;SDS011;5580;50.106;8.702;2023-02-04T01:48:39;14.20;;;4.90;;
11054;SDS011;5580;50.106;8.702;2023-02-04T01:51:06;11.80;;;4.57;;
11054;SDS011;5580;50.106;8.702;2023-02-04T01:53:35;15.20;;;4.73;;
11054;SDS011;5580;50.106;8.702;2023-02-04T01:56:10;15.90;;;4.90;;
11054;SDS011;5580;50.106;8.702;2023-02-04T01:58:44;15.10;;;4.73;;
11054;SDS011;5580;50.106;8.702;2023-02-04T02:01:12;12.50;;;4.87;;
11054;SDS011;5580;50.106;8.702;2023-02-04T02:03:39;12.83;;;4.67;;
11054;SDS011;5580;50.106;8.702;2023-02-04T02:06:06;15.13;;;4.80;;
11054;SDS011;5580;50.106;8.702;2023-02-04T02:08:33;13.93;;;4.43;;
11054;SDS011;5580;50.106;8.702;2023-02-04T02:11:00;12.53;;;4.87;;
11054;SDS011;5580;50.106;8.702;2023-02-04T02:13:26;15.87;;;4.90;;
11054;SDS011;5580;50.106;8.702;2023-02-04T02:15:52;14.90;;;4.67;;
11054;SDS011;5580;50.106;8.702;2023-02-04T02:18:17;12.33;;;4.27;;
11054;SDS011;5580;50.106;8.702;2023-02-04T02:20:43;13.43;;;5.07;;
11054;SDS011;5580;50.106;8.702;2023-02-04T02:26:09;14.57;;;4.80;;
11054;SDS011;5580;50.106;8.702;2023-02-04T02:28:35;14.60;;;5.03;;
11054;SDS011;5580;50.106;8.702;2023-02-04T02:31:00;15.63;;;4.60;;
11054;SDS011;5580;50.106;8.702;2023-02-04T02:33:26;12.63;;;4.70;;
11054;SDS011;5580;50.106;8.702;2023-02-04T02:35:52;19.20;;;4.90;;
11054;SDS011;5580;50.106;8.702;2023-02-04T02:38:18;20.70;;;5.23;;
11054;SDS011;5580;50.106;8.702;2023-02-04T02:40:44;17.10;;;5.10;;
11054;SDS011;5580;50.106;8.702;2023-02-04T02:43:14;18.17;;;4.80;;
11054;SDS011;5580;50.106;8.702;2023-02-04T02:45:42;12.60;;;4.53;;
11054;SDS011;5580;50.106;8.702;2023-02-04T02:48:08;14.03;;;4.73;;
11054;SDS011;5580;50.106;8.702;2023-02-04T02:50:34;14.70;;;4.47;;
11054;SDS011;5580;50.106;8.702;2023-02-04T02:53:01;16.80;;;4.60;;
11054;SDS011;5580;50.106;8.702;2023-02-04T02:55:28;15.90;;;4.60;;
11054;SDS011;5580;50.106;8.702;2023-02-04T02:57:54;14.70;;;5.03;;
11054;SDS011;5580;50.106;8.702;2023-02-04T03:00:22;14.30;;;5.13;;
11054;SDS011;5580;50.106;8.702;2023-02-04T03:02:55;12.60;;;4.73;;
11054;SDS011;5580;50.106;8.702;2023-02-04T03:05:35;15.60;;;4.80;;
11054;SDS011;5580;50.106;8.702;2023-02-04T03:08:07;15.07;;;5.03;;
11054;SDS011;5580;50.106;8.702;2023-02-04T03:10:34;17.10;;;4.87;;
11054;SDS011;5580;50.106;8.702;2023-02-04T03:13:00;18.40;;;5.10;;
11054;SDS011;5580;50.106;8.702;2023-02-04T03:15:27;16.37;;;4.80;;
11054;SDS011;5580;50.106;8.702;2023-02-04T03:17:52;19.03;;;5.30;;
11054;SDS011;5580;50.106;8.702;2023-02-04T03:20:20;14.33;;;5.10;;
11054;SDS011;5580;50.106;8.702;2023-02-04T03:22:51;15.93;;;5.30;;
11054;SDS011;5580;50.106;8.702;2023-02-04T03:25:18;13.27;;;4.80;;
11054;SDS011;5580;50.106;8.702;2023-02-04T03:27:44;18.07;;;5.40;;
11054;SDS011;5580;50.106;8.702;2023-02-04T03:30:10;20.33;;;5.40;;
11054;SDS011;5580;50.106;8.702;2023-02-04T03:32:36;17.27;;;5.20;;
11054;SDS011;5580;50.106;8.702;2023-02-04T03:35:02;12.13;;;5.03;;
11054;SDS011;5580;50.106;8.702;2023-02-04T03:37:28;17.13;;;5.13;;
11054;SDS011;5580;50.106;8.702;2023-02-04T03:39:53;11.77;;;4.57;;
11054;SDS011;5580;50.106;8.702;2023-02-04T03:42:19;17.13;;;5.47;;
11054;SDS011;5580;50.106;8.702;2023-02-04T03:44:44;16.17;;;4.63;;
11054;SDS011;5580;50.106;8.702;2023-02-04T03:47:10;15.43;;;5.10;;
11054;SDS011;5580;50.106;8.702;2023-02-04T03:49:35;15.17;;;5.13;;
11054;SDS011;5580;50.106;8.702;2023-02-04T03:52:02;16.73;;;4.83;;
11054;SDS011;5580;50.106;8.702;2023-02-04T03:54:28;18.80;;;5.47;;
11054;SDS011;5580;50.106;8.702;2023-02-04T03:56:53;16.60;;;5.13;;
11054;SDS011;5580;50.106;8.702;2023-02-04T03:59:19;14.83;;;4.70;;
11054;SDS011;5580;50.106;8.702;2023-02-04T04:01:45;21.27;;;5.20;;
11054;SDS011;5580;50.106;8.702;2023-02-04T04:04:10;17.23;;;5.33;;
11054;SDS011;5580;50.106;8.702;2023-02-04T04:06:36;19.90;;;5.40;;
11054;SDS011;5580;50.106;8.702;2023-02-04T04:09:01;21.00;;;5.30;;
11054;SDS011;5580;50.106;8.702;2023-02-04T04:11:28;17.93;;;5.03;;
11054;SDS011;5580;50.106;8.702;2023-02-04T04:13:54;19.47;;;5.40;;
11054;SDS011;5580;50.106;8.702;2023-02-04T04:16:20;20.87;;;5.30;;
11054;SDS011;5580;50.106;8.702;2023-02-04T04:18:46;15.70;;;4.70;;
11054;SDS011;5580;50.106;8.702;2023-02-04T04:21:12;17.40;;;4.90;;
11054;SDS011;5580;50.106;8.702;2023-02-04T04:23:37;21.87;;;5.20;;
11054;SDS011;5580;50.106;8.702;2023-02-04T04:26:03;18.63;;;5.40;;
11054;SDS011;5580;50.106;8.702;2023-02-04T04:28:28;18.50;;;4.80;;
11054;SDS011;5580;50.106;8.702;2023-02-04T04:30:54;16.77;;;4.93;;
11054;SDS011;5580;50.106;8.702;2023-02-04T04:33:19;17.13;;;4.93;;
11054;SDS011;5580;50.106;8.702;2023-02-04T04:35:45;16.97;;;4.63;;
11054;SDS011;5580;50.106;8.702;2023-02-04T04:38:11;19.77;;;5.47;;
11054;SDS011;5580;50.106;8.702;2023-02-04T04:40:36;19.60;;;5.27;;
11054;SDS011;5580;50.106;8.702;2023-02-04T04:43:02;20.27;;;5.60;;
11054;SDS011;5580;50.106;8.702;2023-02-04T04:45:28;13.90;;;4.67;;
11054;SDS011;5580;50.106;8.702;2023-02-04T04:47:53;19.40;;;5.37;;
11054;SDS011;5580;50.106;8.702;2023-02-04T04:50:19;23.03;;;5.07;;
11054;SDS011;5580;50.106;8.702;2023-02-04T04:52:45;18.13;;;4.93;;
11054;SDS011;5580;50.106;8.702;2023-02-04T04:55:11;21.33;;;5.43;;
11054;SDS011;5580;50.106;8.702;2023-02-04T04:57:37;20.40;;;5.13;;
11054;SDS011;5580;50.106;8.702;2023-02-04T05:00:03;16.83;;;4.87;;
11054;SDS011;5580;50.106;8.702;2023-02-04T05:02:30;19.43;;;4.77;;
11054;SDS011;5580;50.106;8.702;2023-02-04T05:04:55;16.73;;;5.10;;
11054;SDS011;5580;50.106;8.702;2023-02-04T05:07:21;22.03;;;5.67;;
11054;SDS011;5580;50.106;8.702;2023-02-04T05:09:46;19.37;;;5.30;;
11054;SDS011;5580;50.106;8.702;2023-02-04T05:12:12;20.63;;;5.20;;
11054;SDS011;5580;50.106;8.702;2023-02-04T05:14:38;18.63;;;5.83;;
11054;SDS011;5580;50.106;8.702;2023-02-04T05:17:03;17.47;;;5.33;;
11054;SDS011;5580;50.106;8.702;2023-02-04T05:19:29;19.23;;;5.20;;
11054;SDS011;5580;50.106;8.702;2023-02-04T05:21:55;19.60;;;6.00;;
11054;SDS011;5580;50.106;8.702;2023-02-04T05:24:22;19.93;;;5.50;;
11054;SDS011;5580;50.106;8.702;2023-02-04T05:26:47;22.67;;;5.93;;
11054;SDS011;5580;50.106;8.702;2023-02-04T05:29:13;19.17;;;5.43;;
11054;SDS011;5580;50.106;8.702;2023-02-04T05:31:38;20.40;;;6.00;;
11054;SDS011;5580;50.106;8.702;2023-02-04T05:34:04;22.43;;;5.53;;
11054;SDS011;5580;50.106;8.702;2023-02-04T05:36:29;20.00;;;5.70;;
11054;SDS011;5580;50.106;8.702;2023-02-04T05:38:55;23.50;;;5.97;;
11054;SDS011;5580;50.106;8.702;2023-02-04T05:41:20;21.80;;;5.73;;
11054;SDS011;5580;50.106;8.702;2023-02-04T05:43:46;21.53;;;5.67;;
11054;SDS011;5580;50.106;8.702;2023-02-04T05:46:12;21.07;;;5.63;;
11054;SDS011;5580;50.106;8.702;2023-02-04T05:48:37;17.83;;;5.43;;
11054;SDS011;5580;50.106;8.702;2023-02-04T05:51:04;20.07;;;5.70;;
11054;SDS011;5580;50.106;8.702;2023-02-04T05:53:29;18.93;;;5.83;;
11054;SDS011;5580;50.106;8.702;2023-02-04T05:55:55;17.00;;;5.43;;
11054;SDS011;5580;50.106;8.702;2023-02-04T05:58:21;20.50;;;5.33;;
11054;SDS011;5580;50.106;8.702;2023-02-04T06:00:46;20.53;;;5.40;;
11054;SDS011;5580;50.106;8.702;2023-02-04T06:03:12;17.83;;;5.40;;
11054;SDS011;5580;50.106;8.702;2023-02-04T06:05:38;21.37;;;5.90;;
11054;SDS011;5580;50.106;8.702;2023-02-04T06:08:04;20.53;;;6.03;;
11054;SDS011;5580;50.106;8.702;2023-02-04T06:10:30;21.30;;;6.27;;
11054;SDS011;5580;50.106;8.702;2023-02-04T06:12:56;21.10;;;5.63;;
11054;SDS011;5580;50.106;8.702;2023-02-04T06:15:22;18.30;;;5.40;;
11054;SDS011;5580;50.106;8.702;2023-02-04T06:17:47;21.47;;;5.90;;
11054;SDS011;5580;50.106;8.702;2023-02-04T06:20:17;21.23;;;5.30;;
11054;SDS011;5580;50.106;8.702;2023-02-04T06:22:42;16.27;;;5.23;;
11054;SDS011;5580;50.106;8.702;2023-02-04T06:25:08;19.97;;;5.43;;
11054;SDS011;5580;50.106;8.702;2023-02-04T06:27:34;18.47;;;5.60;;
11054;SDS011;5580;50.106;8.702;2023-02-04T06:29:59;19.80;;;5.33;;
11054;SDS011;5580;50.106;8.702;2023-02-04T06:32:25;22.47;;;5.70;;
11054;SDS011;5580;50.106;8.702;2023-02-04T06:34:50;21.10;;;5.97;;
11054;SDS011;5580;50.106;8.702;2023-02-04T06:37:16;23.03;;;5.83;;
11054;SDS011;5580;50.106;8.702;2023-02-04T06:39:42;22.07;;;6.33;;
11054;SDS011;5580;50.106;8.702;2023-02-04T06:42:08;28.73;;;6.63;;
11054;SDS011;5580;50.106;8.702;2023-02-04T06:44:34;18.67;;;5.60;;
11054;SDS011;5580;50.106;8.702;2023-02-04T06:47:00;19.13;;;5.47;;
11054;SDS011;5580;50.106;8.702;2023-02-04T06:49:25;26.00;;;5.87;;
11054;SDS011;5580;50.106;8.702;2023-02-04T06:51:51;24.80;;;6.00;;
11054;SDS011;5580;50.106;8.702;2023-02-04T06:54:16;24.73;;;5.90;;
11054;SDS011;5580;50.106;8.702;2023-02-04T06:56:42;18.33;;;5.90;;
11054;SDS011;5580;50.106;8.702;2023-02-04T06:59:08;20.93;;;6.13;;
11054;SDS011;5580;50.106;8.702;2023-02-04T07:01:34;18.73;;;5.80;;
11054;SDS011;5580;50.106;8.702;2023-02-04T07:04:00;26.70;;;6.13;;
11054;SDS011;5580;50.106;8.702;2023-02-04T07:06:26;20.93;;;6.10;;
11054;SDS011;5580;50.106;8.702;2023-02-04T07:08:52;19.17;;;6.00;;
11054;SDS011;5580;50.106;8.702;2023-02-04T07:11:18;21.20;;;5.63;;
11054;SDS011;5580;50.106;8.702;2023-02-04T07:13:43;18.17;;;5.17;;
11054;SDS011;5580;50.106;8.702;2023-02-04T07:16:09;23.80;;;5.93;;
11054;SDS011;5580;50.106;8.702;2023-02-04T07:18:34;25.30;;;6.07;;
11054;SDS011;5580;50.106;8.702;2023-02-04T07:21:00;23.03;;;6.23;;
11054;SDS011;5580;50.106;8.702;2023-02-04T07:23:26;22.80;;;6.07;;
11054;SDS011;5580;50.106;8.702;2023-02-04T07:25:52;22.00;;;5.67;;
11054;SDS011;5580;50.106;8.702;2023-02-04T07:28:20;16.00;;;5.67;;
11054;SDS011;5580;50.106;8.702;2023-02-04T07:30:45;19.20;;;5.53;;
11054;SDS011;5580;50.106;8.702;2023-02-04T07:33:11;22.90;;;6.03;;
11054;SDS011;5580;50.106;8.702;2023-02-04T07:35:37;23.33;;;5.87;;
11054;SDS011;5580;50.106;8.702;2023-02-04T07:38:03;20.10;;;5.90;;
11054;SDS011;5580;50.106;8.702;2023-02-04T07:40:29;21.97;;;5.97;;
11054;SDS011;5580;50.106;8.702;2023-02-04T07:42:54;20.43;;;6.30;;
11054;SDS011;5580;50.106;8.702;2023-02-04T07:45:20;21.53;;;6.67;;
11054;SDS011;5580;50.106;8.702;2023-02-04T07:47:45;20.53;;;6.53;;
11054;SDS011;5580;50.106;8.702;2023-02-04T07:50:11;20.90;;;6.50;;
11054;SDS011;5580;50.106;8.702;2023-02-04T07:52:37;23.43;;;6.60;;
11054;SDS011;5580;50.106;8.702;2023-02-04T07:55:03;23.03;;;7.07;;
11054;SDS011;5580;50.106;8.702;2023-02-04T07:57:29;22.87;;;6.43;;
11054;SDS011;5580;50.106;8.702;2023-02-04T07:59:55;20.13;;;6.80;;
11054;SDS011;5580;50.106;8.702;2023-02-04T08:02:20;24.70;;;6.77;;
11054;SDS011;5580;50.106;8.702;2023-02-04T08:04:46;21.93;;;6.37;;
11054;SDS011;5580;50.106;8.702;2023-02-04T08:07:12;20.67;;;6.27;;
11054;SDS011;5580;50.106;8.702;2023-02-04T08:09:37;22.17;;;6.20;;
11054;SDS011;5580;50.106;8.702;2023-02-04T08:12:03;24.43;;;6.47;;
11054;SDS011;5580;50.106;8.702;2023-02-04T08:14:29;23.70;;;6.33;;
11054;SDS011;5580;50.106;8.702;2023-02-04T08:16:55;26.17;;;6.67;;
11054;SDS011;5580;50.106;8.702;2023-02-04T08:19:20;26.57;;;6.50;;
11054;SDS011;5580;50.106;8.702;2023-02-04T08:21:46;20.57;;;6.37;;
11054;SDS011;5580;50.106;8.702;2023-02-04T08:24:13;24.83;;;6.90;;
11054;SDS011;5580;50.106;8.702;2023-02-04T08:26:40;22.00;;;6.23;;
11054;SDS011;5580;50.106;8.702;2023-02-04T08:29:06;21.63;;;6.33;;
11054;SDS011;5580;50.106;8.702;2023-02-04T08:31:32;23.77;;;6.47;;
11054;SDS011;5580;50.106;8.702;2023-02-04T08:33:58;21.43;;;6.50;;
11054;SDS011;5580;50.106;8.702;2023-02-04T08:36:24;23.60;;;6.23;;
11054;SDS011;5580;50.106;8.702;2023-02-04T08:38:50;21.83;;;6.40;;
11054;SDS011;5580;50.106;8.702;2023-02-04T08:41:15;21.23;;;6.53;;
11054;SDS011;5580;50.106;8.702;2023-02-04T08:43:41;26.10;;;6.00;;
11054;SDS011;5580;50.106;8.702;2023-02-04T08:46:06;23.00;;;5.90;;
11054;SDS011;5580;50.106;8.702;2023-02-04T08:48:32;24.17;;;6.77;;
11054;SDS011;5580;50.106;8.702;2023-02-04T08:50:58;22.60;;;6.63;;
11054;SDS011;5580;50.106;8.702;2023-02-04T08:53:23;19.30;;;5.73;;
11054;SDS011;5580;50.106;8.702;2023-02-04T08:55:49;19.83;;;6.00;;
11054;SDS011;5580;50.106;8.702;2023-02-04T08:58:14;22.07;;;6.00;;
11054;SDS011;5580;50.106;8.702;2023-02-04T09:00:40;20.37;;;6.10;;
11054;SDS011;5580;50.106;8.702;2023-02-04T09:03:06;19.43;;;5.73;;
11054;SDS011;5580;50.106;8.702;2023-02-04T09:05:32;20.57;;;5.70;;
11054;SDS011;5580;50.106;8.702;2023-02-04T09:07:57;23.03;;;5.90;;
11054;SDS011;5580;50.106;8.702;2023-02-04T09:10:23;27.53;;;6.60;;
11054;SDS011;5580;50.106;8.702;2023-02-04T09:12:49;18.67;;;5.80;;
11054;SDS011;5580;50.106;8.702;2023-02-04T09:15:19;21.57;;;6.37;;
11054;SDS011;5580;50.106;8.702;2023-02-04T09:17:47;18.77;;;5.17;;
11054;SDS011;5580;50.106;8.702;2023-02-04T09:20:13;26.37;;;5.80;;
11054;SDS011;5580;50.106;8.702;2023-02-04T09:22:38;18.03;;;5.77;;
11054;SDS011;5580;50.106;8.702;2023-02-04T09:25:04;21.33;;;5.93;;
11054;SDS011;5580;50.106;8.702;2023-02-04T09:27:30;18.77;;;4.93;;
11054;SDS011;5580;50.106;8.702;2023-02-04T09:29:55;23.30;;;5.00;;
11054;SDS011;5580;50.106;8.702;2023-02-04T09:32:21;18.70;;;5.70;;
11054;SDS011;5580;50.106;8.702;2023-02-04T09:34:47;19.87;;;5.20;;
11054;SDS011;5580;50.106;8.702;2023-02-04T09:37:13;14.87;;;4.53;;
11054;SDS011;5580;50.106;8.702;2023-02-04T09:39:39;15.40;;;5.00;;
11054;SDS011;5580;50.106;8.702;2023-02-04T09:42:04;21.73;;;5.63;;
11054;SDS011;5580;50.106;8.702;2023-02-04T09:44:30;22.30;;;6.00;;
11054;SDS011;5580;50.106;8.702;2023-02-04T09:46:57;19.10;;;5.07;;
11054;SDS011;5580;50.106;8.702;2023-02-04T09:49:25;19.20;;;5.00;;
11054;SDS011;5580;50.106;8.702;2023-02-04T09:51:51;17.57;;;5.47;;
11054;SDS011;5580;50.106;8.702;2023-02-04T09:54:19;19.90;;;5.20;;
11054;SDS011;5580;50.106;8.702;2023-02-04T09:56:46;19.40;;;5.60;;
11054;SDS011;5580;50.106;8.702;2023-02-04T09:59:13;18.40;;;6.37;;
11054;SDS011;5580;50.106;8.702;2023-02-04T10:01:40;22.77;;;6.27;;
11054;SDS011;5580;50.106;8.702;2023-02-04T10:04:10;26.00;;;6.50;;
11054;SDS011;5580;50.106;8.702;2023-02-04T10:06:39;25.50;;;6.87;;
11054;SDS011;5580;50.106;8.702;2023-02-04T10:09:08;16.90;;;5.53;;
11054;SDS011;5580;50.106;8.702;2023-02-04T10:11:38;18.90;;;5.87;;
11054;SDS011;5580;50.106;8.702;2023-02-04T10:14:05;19.53;;;6.07;;
11054;SDS011;5580;50.106;8.702;2023-02-04T10:16:37;22.57;;;6.40;;
11054;SDS011;5580;50.106;8.702;2023-02-04T10:19:10;22.90;;;5.37;;
11054;SDS011;5580;50.106;8.702;2023-02-04T10:21:38;17.67;;;5.33;;
11054;SDS011;5580;50.106;8.702;2023-02-04T10:24:06;15.97;;;5.03;;
11054;SDS011;5580;50.106;8.702;2023-02-04T10:26:43;14.10;;;4.07;;
11054;SDS011;5580;50.106;8.702;2023-02-04T10:29:27;14.23;;;4.30;;
11054;SDS011;5580;50.106;8.702;2023-02-04T10:31:52;16.60;;;4.83;;
11054;SDS011;5580;50.106;8.702;2023-02-04T10:34:19;13.47;;;4.00;;
11054;SDS011;5580;50.106;8.702;2023-02-04T10:36:47;17.63;;;4.40;;
11054;SDS011;5580;50.106;8.702;2023-02-04T10:39:18;18.83;;;4.67;;
11054;SDS011;5580;50.106;8.702;2023-02-04T10:44:24;19.07;;;4.63;;
11054;SDS011;5580;50.106;8.702;2023-02-04T10:47:03;17.10;;;4.73;;
11054;SDS011;5580;50.106;8.702;2023-02-04T10:49:50;17.00;;;4.00;;
11054;SDS011;5580;50.106;8.702;2023-02-04T10:52:20;19.07;;;4.23;;
11054;SDS011;5580;50.106;8.702;2023-02-04T10:54:48;15.63;;;4.20;;
11054;SDS011;5580;50.106;8.702;2023-02-04T10:57:20;14.63;;;4.20;;
11054;SDS011;5580;50.106;8.702;2023-02-04T10:59:47;19.53;;;4.77;;
11054;SDS011;5580;50.106;8.702;2023-02-04T11:02:30;13.00;;;4.83;;
11054;SDS011;5580;50.106;8.702;2023-02-04T11:05:09;17.97;;;4.50;;
11054;SDS011;5580;50.106;8.702;2023-02-04T11:07:40;16.17;;;5.17;;
11054;SDS011;5580;50.106;8.702;2023-02-04T11:10:09;15.97;;;4.50;;
11054;SDS011;5580;50.106;8.702;2023-02-04T11:12:42;17.77;;;4.93;;
11054;SDS011;5580;50.106;8.702;2023-02-04T11:15:35;13.20;;;4.60;;
11054;SDS011;5580;50.106;8.702;2023-02-04T11:20:43;15.40;;;4.93;;
11054;SDS011;5580;50.106;8.702;2023-02-04T11:25:49;17.83;;;5.03;;
11054;SDS011;5580;50.106;8.702;2023-02-04T11:28:25;19.23;;;4.90;;
11054;SDS011;5580;50.106;8.702;2023-02-04T11:30:58;16.47;;;4.37;;
11054;SDS011;5580;50.106;8.702;2023-02-04T11:33:24;22.00;;;5.13;;
11054;SDS011;5580;50.106;8.702;2023-02-04T11:36:04;15.97;;;4.67;;
11054;SDS011;5580;50.106;8.702;2023-02-04T11:38:31;13.73;;;4.63;;
11054;SDS011;5580;50.106;8.702;2023-02-04T11:40:58;13.17;;;4.33;;
11054;SDS011;5580;50.106;8.702;2023-02-04T11:43:25;15.50;;;4.80;;
11054;SDS011;5580;50.106;8.702;2023-02-04T11:46:06;16.57;;;4.60;;
11054;SDS011;5580;50.106;8.702;2023-02-04T11:48:40;17.20;;;4.90;;
11054;SDS011;5580;50.106;8.702;2023-02-04T11:51:16;14.10;;;4.37;;
11054;SDS011;5580;50.106;8.702;2023-02-04T11:53:49;14.23;;;4.67;;
11054;SDS011;5580;50.106;8.702;2023-02-04T11:56:19;15.97;;;4.63;;
11054;SDS011;5580;50.106;8.702;2023-02-04T11:58:45;17.20;;;4.57;;
11054;SDS011;5580;50.106;8.702;2023-02-04T12:01:16;14.17;;;4.10;;
11054;SDS011;5580;50.106;8.702;2023-02-04T12:03:50;17.40;;;4.87;;
11054;SDS011;5580;50.106;8.702;2023-02-04T12:06:28;16.67;;;4.70;;
11054;SDS011;5580;50.106;8.702;2023-02-04T12:09:05;16.00;;;5.23;;
11054;SDS011;5580;50.106;8.702;2023-02-04T12:11:39;16.03;;;4.60;;
11054;SDS011;5580;50.106;8.702;2023-02-04T12:14:20;12.30;;;4.67;;
11054;SDS011;5580;50.106;8.702;2023-02-04T12:19:12;13.00;;;4.20;;
11054;SDS011;5580;50.106;8.702;2023-02-04T12:21:38;11.10;;;4.33;;
11054;SDS011;5580;50.106;8.702;2023-02-04T12:24:04;13.67;;;4.20;;
11054;SDS011;5580;50.106;8.702;2023-02-04T12:26:30;15.60;;;4.30;;
11054;SDS011;5580;50.106;8.702;2023-02-04T12:28:56;17.70;;;4.57;;
11054;SDS011;5580;50.106;8.702;2023-02-04T12:31:25;12.43;;;3.93;;
11054;SDS011;5580;50.106;8.702;2023-02-04T12:33:50;14.30;;;4.00;;
11054;SDS011;5580;50.106;8.702;2023-02-04T12:36:18;13.27;;;4.10;;
11054;SDS011;5580;50.106;8.702;2023-02-04T12:38:43;14.13;;;4.30;;
11054;SDS011;5580;50.106;8.702;2023-02-04T12:41:09;14.03;;;4.00;;
11054;SDS011;5580;50.106;8.702;2023-02-04T12:43:35;15.50;;;3.93;;
11054;SDS011;5580;50.106;8.702;2023-02-04T12:46:00;14.53;;;4.17;;
11054;SDS011;5580;50.106;8.702;2023-02-04T12:48:26;11.60;;;4.17;;
11054;SDS011;5580;50.106;8.702;2023-02-04T12:50:52;14.93;;;3.90;;
11054;SDS011;5580;50.106;8.702;2023-02-04T12:53:17;12.03;;;4.20;;
11054;SDS011;5580;50.106;8.702;2023-02-04T12:55:43;12.97;;;4.47;;
11054;SDS011;5580;50.106;8.702;2023-02-04T12:58:08;13.60;;;4.03;;
11054;SDS011;5580;50.106;8.702;2023-02-04T13:00:34;16.80;;;4.63;;
11054;SDS011;5580;50.106;8.702;2023-02-04T13:03:00;18.83;;;4.30;;
11054;SDS011;5580;50.106;8.702;2023-02-04T13:05:25;19.27;;;4.47;;
11054;SDS011;5580;50.106;8.702;2023-02-04T13:07:51;12.13;;;3.97;;
11054;SDS011;5580;50.106;8.702;2023-02-04T13:10:18;12.93;;;4.53;;
11054;SDS011;5580;50.106;8.702;2023-02-04T13:12:45;14.23;;;4.40;;
11054;SDS011;5580;50.106;8.702;2023-02-04T13:15:11;16.93;;;4.90;;
11054;SDS011;5580;50.106;8.702;2023-02-04T13:17:37;13.83;;;4.40;;
11054;SDS011;5580;50.106;8.702;2023-02-04T13:20:03;16.60;;;4.40;;
11054;SDS011;5580;50.106;8.702;2023-02-04T13:22:29;10.43;;;4.27;;
11054;SDS011;5580;50.106;8.702;2023-02-04T13:24:55;13.70;;;4.30;;
11054;SDS011;5580;50.106;8.702;2023-02-04T13:27:20;14.07;;;4.00;;
11054;SDS011;5580;50.106;8.702;2023-02-04T13:29:46;15.90;;;4.30;;
11054;SDS011;5580;50.106;8.702;2023-02-04T13:32:12;15.90;;;3.80;;
11054;SDS011;5580;50.106;8.702;2023-02-04T13:34:37;13.73;;;4.30;;
11054;SDS011;5580;50.106;8.702;2023-02-04T13:37:03;10.00;;;4.30;;
11054;SDS011;5580;50.106;8.702;2023-02-04T13:39:28;13.30;;;3.80;;
11054;SDS011;5580;50.106;8.702;2023-02-04T13:41:54;12.60;;;4.00;;
11054;SDS011;5580;50.106;8.702;2023-02-04T13:44:19;15.33;;;4.57;;
11054;SDS011;5580;50.106;8.702;2023-02-04T13:46:45;12.73;;;4.07;;
11054;SDS011;5580;50.106;8.702;2023-02-04T13:49:11;15.70;;;4.43;;
11054;SDS011;5580;50.106;8.702;2023-02-04T13:51:36;15.87;;;4.30;;
11054;SDS011;5580;50.106;8.702;2023-02-04T13:54:02;11.70;;;4.03;;
11054;SDS011;5580;50.106;8.702;2023-02-04T13:56:27;10.43;;;3.87;;
11054;SDS011;5580;50.106;8.702;2023-02-04T13:58:54;16.27;;;4.10;;
11054;SDS011;5580;50.106;8.702;2023-02-04T14:01:20;16.23;;;4.40;;
11054;SDS011;5580;50.106;8.702;2023-02-04T14:03:45;16.83;;;4.27;;
11054;SDS011;5580;50.106;8.702;2023-02-04T14:06:11;13.63;;;4.30;;
11054;SDS011;5580;50.106;8.702;2023-02-04T14:08:37;14.37;;;4.20;;
11054;SDS011;5580;50.106;8.702;2023-02-04T14:11:03;10.33;;;3.67;;
11054;SDS011;5580;50.106;8.702;2023-02-04T14:13:29;13.77;;;4.70;;
11054;SDS011;5580;50.106;8.702;2023-02-04T14:15:54;12.90;;;4.37;;
11054;SDS011;5580;50.106;8.702;2023-02-04T14:18:20;13.60;;;4.23;;
11054;SDS011;5580;50.106;8.702;2023-02-04T14:20:46;14.03;;;4.30;;
11054;SDS011;5580;50.106;8.702;2023-02-04T14:23:11;13.37;;;4.13;;
11054;SDS011;5580;50.106;8.702;2023-02-04T14:25:37;11.97;;;4.23;;
11054;SDS011;5580;50.106;8.702;2023-02-04T14:28:03;16.07;;;4.67;;
11054;SDS011;5580;50.106;8.702;2023-02-04T14:30:29;12.10;;;3.97;;
11054;SDS011;5580;50.106;8.702;2023-02-04T14:32:55;18.07;;;4.50;;
11054;SDS011;5580;50.106;8.702;2023-02-04T14:35:22;12.83;;;3.87;;
11054;SDS011;5580;50.106;8.702;2023-02-04T14:37:48;14.37;;;4.40;;
11054;SDS011;5580;50.106;8.702;2023-02-04T14:40:14;13.30;;;4.13;;
11054;SDS011;5580;50.106;8.702;2023-02-04T14:42:41;10.87;;;4.07;;
11054;SDS011;5580;50.106;8.702;2023-02-04T14:45:07;13.53;;;3.87;;
11054;SDS011;5580;50.106;8.702;2023-02-04T14:47:34;14.20;;;4.00;;
11054;SDS011;5580;50.106;8.702;2023-02-04T14:50:00;13.53;;;4.03;;
11054;SDS011;5580;50.106;8.702;2023-02-04T14:52:26;13.63;;;3.83;;
11054;SDS011;5580;50.106;8.702;2023-02-04T14:54:52;15.73;;;4.30;;
11054;SDS011;5580;50.106;8.702;2023-02-04T14:57:17;19.27;;;4.40;;
11054;SDS011;5580;50.106;8.702;2023-02-04T14:59:43;13.83;;;4.60;;